createdAt,value
2022-10-22T00:01:24.664Z,15.00
2022-10-22T00:03:52.236Z,15.00
2022-10-22T00:06:19.521Z,15.00
2022-10-22T00:08:46.635Z,15.00
2022-10-22T00:11:15.240Z,14.90
2022-10-22T00:13:42.568Z,14.90
2022-10-22T00:16:09.710Z,14.90
2022-10-22T00:18:37.363Z,14.90
2022-10-22T00:21:05.020Z,14.90
2022-10-22T00:23:32.078Z,14.90
2022-10-22T00:25:59.196Z,14.90
2022-10-22T00:28:26.548Z,14.90
2022-10-22T00:30:57.917Z,14.90
2022-10-22T00:33:25.369Z,14.90
2022-10-22T00:35:52.441Z,14.80
2022-10-22T00:38:19.717Z,14.80
2022-10-22T00:40:47.397Z,14.90
2022-10-22T00:43:16.041Z,14.90
2022-10-22T00:45:43.711Z,14.90
2022-10-22T00:48:12.065Z,14.90
2022-10-22T00:50:45.907Z,14.80
2022-10-22T00:53:14.061Z,14.90
2022-10-22T00:55:42.336Z,14.80
2022-10-22T00:58:09.771Z,14.80
2022-10-22T01:00:36.908Z,14.80
2022-10-22T01:03:04.119Z,14.70
2022-10-22T01:05:33.121Z,14.70
2022-10-22T01:08:00.291Z,14.70
2022-10-22T01:10:27.500Z,14.70
2022-10-22T01:13:05.867Z,14.70
2022-10-22T01:15:51.740Z,14.70
2022-10-22T01:18:22.539Z,14.80
2022-10-22T01:21:03.711Z,14.80
2022-10-22T01:23:30.758Z,14.80
2022-10-22T01:26:05.647Z,14.80
2022-10-22T01:28:35.998Z,14.80
2022-10-22T01:31:03.527Z,14.80
2022-10-22T01:33:31.145Z,14.80
2022-10-22T01:36:00.250Z,14.80
2022-10-22T01:38:27.313Z,14.70
2022-10-22T01:40:54.714Z,14.70
2022-10-22T01:43:22.197Z,14.70
2022-10-22T01:45:51.736Z,14.70
2022-10-22T01:48:37.399Z,14.60
2022-10-22T01:51:04.440Z,14.60
2022-10-22T01:53:41.845Z,14.20
2022-10-22T01:56:08.932Z,14.60
2022-10-22T01:58:43.462Z,14.60
2022-10-22T02:01:15.918Z,14.00
2022-10-22T02:04:03.283Z,14.60
2022-10-22T02:06:31.347Z,14.80
2022-10-22T02:08:59.311Z,14.60
2022-10-22T02:11:26.552Z,14.60
2022-10-22T02:13:56.322Z,14.70
2022-10-22T02:16:26.785Z,14.70
2022-10-22T02:18:54.743Z,14.60
2022-10-22T02:21:21.828Z,14.40
2022-10-22T02:23:49.357Z,14.70
2022-10-22T02:26:19.253Z,14.60
2022-10-22T02:28:52.201Z,14.60
2022-10-22T02:31:21.543Z,14.60
2022-10-22T02:33:50.772Z,14.60
2022-10-22T02:36:18.135Z,14.60
2022-10-22T02:38:46.715Z,14.50
2022-10-22T02:41:14.949Z,14.50
2022-10-22T02:43:43.067Z,14.80
2022-10-22T02:46:11.006Z,14.50
2022-10-22T02:48:38.178Z,14.50
2022-10-22T02:51:05.318Z,14.40
2022-10-22T02:53:32.842Z,14.50
2022-10-22T02:55:59.904Z,14.50
2022-10-22T02:58:27.048Z,13.50
2022-10-22T03:00:54.549Z,14.40
2022-10-22T03:03:22.280Z,14.40
2022-10-22T03:05:50.622Z,14.40
2022-10-22T03:08:17.751Z,14.40
2022-10-22T03:10:44.843Z,14.40
2022-10-22T03:13:11.904Z,14.40
2022-10-22T03:15:38.957Z,14.40
2022-10-22T03:18:06.068Z,14.40
2022-10-22T03:20:33.139Z,14.40
2022-10-22T03:23:00.951Z,14.40
2022-10-22T03:25:28.335Z,14.40
2022-10-22T03:27:56.934Z,14.30
2022-10-22T03:30:23.993Z,14.40
2022-10-22T03:32:51.233Z,14.50
2022-10-22T03:35:18.311Z,14.50
2022-10-22T03:37:45.563Z,14.40
2022-10-22T03:40:13.265Z,14.40
2022-10-22T03:42:41.519Z,14.40
2022-10-22T03:45:08.891Z,14.10
2022-10-22T03:47:37.427Z,14.40
2022-10-22T03:50:05.692Z,14.40
2022-10-22T03:52:36.999Z,14.70
2022-10-22T03:55:04.789Z,14.40
2022-10-22T03:57:32.263Z,14.50
2022-10-22T03:59:59.341Z,14.50
2022-10-22T04:02:26.492Z,14.50
2022-10-22T04:04:53.577Z,14.50
2022-10-22T04:07:20.806Z,14.50
2022-10-22T04:09:47.894Z,14.50
2022-10-22T04:12:15.015Z,14.50
2022-10-22T04:14:43.116Z,14.50
2022-10-22T04:17:10.229Z,14.50
2022-10-22T04:19:37.452Z,14.40
2022-10-22T04:22:04.562Z,14.40
2022-10-22T04:24:32.037Z,14.40
2022-10-22T04:26:59.466Z,14.40
2022-10-22T04:29:26.920Z,15.00
2022-10-22T04:31:53.982Z,14.30
2022-10-22T04:34:21.129Z,14.30
2022-10-22T04:36:48.342Z,13.40
2022-10-22T04:39:15.524Z,14.20
2022-10-22T04:41:42.600Z,14.20
2022-10-22T04:44:12.420Z,14.20
2022-10-22T04:46:43.411Z,14.20
2022-10-22T04:49:10.615Z,14.20
2022-10-22T04:51:37.695Z,14.20
2022-10-22T04:54:04.866Z,14.20
2022-10-22T04:56:32.524Z,14.20
2022-10-22T04:59:00.864Z,14.20
2022-10-22T05:01:32.201Z,14.10
2022-10-22T05:04:00.465Z,14.90
2022-10-22T05:06:28.525Z,14.10
2022-10-22T05:08:57.261Z,14.10
2022-10-22T05:11:25.953Z,14.10
2022-10-22T05:13:53.115Z,14.00
2022-10-22T05:16:20.170Z,14.00
2022-10-22T05:18:47.257Z,14.00
2022-10-22T05:21:15.636Z,13.90
2022-10-22T05:23:43.459Z,14.00
2022-10-22T05:26:11.331Z,13.90
2022-10-22T05:28:38.856Z,13.90
2022-10-22T05:31:07.308Z,13.90
2022-10-22T05:33:34.759Z,13.90
2022-10-22T05:36:02.299Z,13.80
2022-10-22T05:38:29.411Z,13.80
2022-10-22T05:41:04.746Z,13.60
2022-10-22T05:43:31.971Z,13.70
2022-10-22T05:46:03.391Z,13.70
2022-10-22T05:48:30.490Z,13.70
2022-10-22T05:50:58.019Z,14.40
2022-10-22T05:53:25.167Z,13.60
2022-10-22T05:55:52.208Z,13.60
2022-10-22T05:58:19.269Z,13.60
2022-10-22T06:00:47.532Z,13.60
2022-10-22T06:03:14.613Z,13.50
2022-10-22T06:05:41.712Z,14.50
2022-10-22T06:08:12.038Z,13.50
2022-10-22T06:10:42.654Z,13.40
2022-10-22T06:13:09.757Z,13.40
2022-10-22T06:15:36.813Z,13.40
2022-10-22T06:18:04.014Z,13.30
2022-10-22T06:20:31.110Z,13.30
2022-10-22T06:22:58.326Z,13.30
2022-10-22T06:25:25.456Z,13.00
2022-10-22T06:27:52.594Z,13.20
2022-10-22T06:30:19.674Z,13.20
2022-10-22T06:32:46.741Z,13.10
2022-10-22T06:35:13.883Z,13.20
2022-10-22T06:37:41.147Z,13.20
2022-10-22T06:40:08.641Z,13.20
2022-10-22T06:42:35.728Z,13.20
2022-10-22T06:45:02.971Z,13.20
2022-10-22T06:47:31.712Z,13.20
2022-10-22T06:49:58.918Z,13.10
2022-10-22T06:52:26.023Z,13.10
2022-10-22T06:54:53.077Z,13.10
2022-10-22T06:57:20.150Z,13.10
2022-10-22T06:59:47.333Z,13.20
2022-10-22T07:02:14.410Z,13.10
2022-10-22T07:04:41.467Z,13.10
2022-10-22T07:07:08.556Z,13.10
2022-10-22T07:09:35.862Z,13.10
2022-10-22T07:12:02.972Z,13.10
2022-10-22T07:14:30.019Z,13.10
2022-10-22T07:16:57.201Z,13.20
2022-10-22T07:19:24.272Z,13.20
2022-10-22T07:21:51.445Z,13.20
2022-10-22T07:24:18.503Z,13.30
2022-10-22T07:26:45.605Z,14.00
2022-10-22T07:29:12.962Z,13.30
2022-10-22T07:31:40.099Z,13.40
2022-10-22T07:34:07.543Z,13.40
2022-10-22T07:36:34.712Z,13.50
2022-10-22T07:39:02.019Z,13.50
2022-10-22T07:41:29.774Z,13.50
2022-10-22T07:43:57.342Z,13.60
2022-10-22T07:46:25.007Z,13.60
2022-10-22T07:48:52.102Z,13.70
2022-10-22T07:51:19.216Z,13.70
2022-10-22T07:53:46.317Z,13.70
2022-10-22T07:56:14.024Z,13.80
2022-10-22T07:58:41.686Z,13.80
2022-10-22T08:01:08.796Z,13.80
2022-10-22T08:03:36.100Z,13.80
2022-10-22T08:06:03.459Z,13.80
2022-10-22T08:08:30.968Z,13.80
2022-10-22T08:10:59.291Z,13.80
2022-10-22T08:13:27.503Z,13.80
2022-10-22T08:15:57.391Z,13.80
2022-10-22T08:18:25.318Z,13.90
2022-10-22T08:20:52.669Z,13.80
2022-10-22T08:23:22.082Z,13.80
2022-10-22T08:25:53.411Z,13.80
2022-10-22T08:28:22.076Z,13.80
2022-10-22T08:30:49.619Z,13.60
2022-10-22T08:33:16.831Z,13.90
2022-10-22T08:35:47.772Z,13.80
2022-10-22T08:38:15.080Z,13.80
2022-10-22T08:40:42.587Z,13.80
2022-10-22T08:43:15.913Z,13.80
2022-10-22T08:45:47.734Z,13.80
2022-10-22T08:48:35.762Z,13.90
2022-10-22T08:51:03.992Z,13.90
2022-10-22T08:53:41.716Z,13.90
2022-10-22T08:56:08.799Z,13.80
2022-10-22T08:58:40.381Z,13.40
2022-10-22T09:01:13.002Z,13.90
2022-10-22T09:03:43.132Z,13.90
2022-10-22T09:06:19.534Z,14.00
2022-10-22T09:08:48.015Z,13.90
2022-10-22T09:11:24.277Z,14.00
2022-10-22T09:13:51.700Z,14.00
2022-10-22T09:16:20.183Z,14.00
2022-10-22T09:19:07.501Z,14.10
2022-10-22T09:21:37.810Z,14.10
2022-10-22T09:24:10.659Z,14.00
2022-10-22T09:26:39.697Z,14.10
2022-10-22T09:29:07.937Z,14.20
2022-10-22T09:31:35.195Z,14.20
2022-10-22T09:34:07.298Z,14.30
2022-10-22T09:36:34.978Z,14.30
2022-10-22T09:39:02.293Z,14.30
2022-10-22T09:41:30.130Z,14.40
2022-10-22T09:43:57.932Z,14.50
2022-10-22T09:46:27.536Z,14.50
2022-10-22T09:48:57.721Z,14.50
2022-10-22T09:51:35.471Z,14.60
2022-10-22T09:54:03.424Z,14.70
2022-10-22T09:56:35.499Z,14.70
2022-10-22T09:59:02.809Z,14.70
2022-10-22T10:01:32.830Z,14.70
2022-10-22T10:04:08.395Z,14.70
2022-10-22T10:06:40.238Z,14.80
2022-10-22T10:09:18.349Z,14.80
2022-10-22T10:12:04.096Z,14.80
2022-10-22T10:14:31.151Z,14.90
2022-10-22T10:16:58.873Z,14.90
2022-10-22T10:19:43.169Z,14.90
2022-10-22T10:22:19.188Z,14.90
2022-10-22T10:24:54.505Z,14.90
2022-10-22T10:27:36.682Z,14.90
2022-10-22T10:30:11.773Z,15.00
2022-10-22T10:32:39.119Z,15.00
2022-10-22T10:35:29.469Z,15.40
2022-10-22T10:40:40.433Z,15.20
2022-10-22T10:43:13.588Z,15.20
2022-10-22T10:45:55.974Z,15.20
2022-10-22T10:48:33.246Z,15.30
2022-10-22T10:51:06.403Z,15.30
2022-10-22T10:53:36.227Z,15.30
2022-10-22T10:56:23.517Z,15.40
2022-10-22T10:58:53.813Z,15.50
2022-10-22T11:01:33.731Z,15.50
2022-10-22T11:04:06.613Z,15.50
2022-10-22T11:06:34.245Z,15.60
2022-10-22T11:09:05.585Z,15.60
2022-10-22T11:11:35.777Z,15.60
2022-10-22T11:14:18.659Z,15.60
2022-10-22T11:16:48.494Z,15.70
2022-10-22T11:19:49.618Z,15.60
2022-10-22T11:22:30.199Z,15.70
2022-10-22T11:25:12.637Z,15.70
2022-10-22T11:27:45.945Z,15.80
2022-10-22T11:30:17.356Z,15.80
2022-10-22T11:32:46.359Z,15.90
2022-10-22T11:35:16.198Z,16.00
2022-10-22T11:37:45.351Z,16.10
2022-10-22T11:40:18.472Z,16.20
2022-10-22T11:43:05.048Z,16.20
2022-10-22T11:45:36.038Z,16.30
2022-10-22T11:48:15.149Z,16.80
2022-10-22T11:50:46.316Z,16.40
2022-10-22T11:53:13.387Z,16.50
2022-10-22T11:55:49.321Z,16.40
2022-10-22T11:58:28.575Z,16.40
2022-10-22T12:00:57.471Z,16.80
2022-10-22T12:03:33.747Z,16.30
2022-10-22T12:06:12.820Z,16.30
2022-10-22T12:08:48.983Z,16.30
2022-10-22T12:11:16.209Z,16.30
2022-10-22T12:14:03.037Z,16.30
2022-10-22T12:16:57.299Z,16.30
2022-10-22T12:19:37.951Z,16.30
2022-10-22T12:22:12.971Z,16.40
2022-10-22T12:24:47.330Z,16.40
2022-10-22T12:27:24.952Z,16.40
2022-10-22T12:29:55.964Z,16.30
2022-10-22T12:32:23.794Z,16.30
2022-10-22T12:34:52.106Z,16.30
2022-10-22T12:37:19.902Z,16.30
2022-10-22T12:39:47.006Z,16.30
2022-10-22T12:42:15.730Z,16.20
2022-10-22T12:44:45.688Z,16.30
2022-10-22T12:47:16.757Z,16.30
2022-10-22T12:49:48.017Z,16.40
2022-10-22T12:52:16.864Z,16.40
2022-10-22T12:54:45.073Z,16.50
2022-10-22T12:57:16.737Z,16.60
2022-10-22T12:59:51.853Z,16.60
2022-10-22T13:02:24.718Z,16.60
2022-10-22T13:05:12.243Z,16.60
2022-10-22T13:07:41.362Z,16.70
2022-10-22T13:10:18.901Z,16.80
2022-10-22T13:12:49.465Z,16.80
2022-10-22T13:15:35.650Z,16.80
2022-10-22T13:18:19.292Z,16.70
2022-10-22T13:20:55.484Z,16.70
2022-10-22T13:23:26.903Z,16.70
2022-10-22T13:26:20.118Z,16.60
2022-10-22T13:28:51.920Z,16.70
2022-10-22T13:31:24.323Z,16.60
2022-10-22T13:33:53.736Z,16.70
2022-10-22T13:36:20.869Z,16.60
2022-10-22T13:38:47.947Z,16.70
2022-10-22T13:41:19.152Z,16.80
2022-10-22T13:43:46.206Z,16.80
2022-10-22T13:46:13.276Z,16.80
2022-10-22T13:48:40.785Z,16.80
2022-10-22T13:51:13.693Z,16.80
2022-10-22T13:53:41.087Z,16.90
2022-10-22T13:56:12.345Z,16.90
2022-10-22T13:58:39.429Z,17.60
2022-10-22T14:01:12.803Z,16.90
2022-10-22T14:03:40.469Z,16.90
2022-10-22T14:06:12.226Z,16.90
2022-10-22T14:08:39.464Z,16.90
2022-10-22T14:11:06.570Z,16.90
2022-10-22T14:13:33.628Z,16.90
2022-10-22T14:16:00.748Z,16.90
2022-10-22T14:18:31.668Z,16.90
2022-10-22T14:21:07.459Z,16.80
2022-10-22T14:23:36.165Z,16.80
2022-10-22T14:26:04.261Z,17.40
2022-10-22T14:28:34.125Z,16.80
2022-10-22T14:31:09.473Z,16.80
2022-10-22T14:33:36.572Z,16.80
2022-10-22T14:36:03.666Z,16.80
2022-10-22T14:38:30.797Z,17.00
2022-10-22T14:40:59.552Z,16.80
2022-10-22T14:43:27.598Z,16.80
2022-10-22T14:45:55.082Z,16.80
2022-10-22T14:48:22.208Z,17.50
2022-10-22T14:50:49.349Z,16.70
2022-10-22T14:53:17.083Z,16.70
2022-10-22T14:55:45.088Z,16.70
2022-10-22T14:58:12.507Z,16.60
2022-10-22T15:00:43.091Z,16.60
2022-10-22T15:03:12.175Z,15.80
2022-10-22T15:05:45.524Z,16.60
2022-10-22T15:08:13.717Z,16.60
2022-10-22T15:10:40.873Z,16.70
2022-10-22T15:13:08.268Z,16.70
2022-10-22T15:15:39.504Z,16.70
2022-10-22T15:18:07.203Z,16.70
2022-10-22T15:20:34.314Z,16.70
2022-10-22T15:23:01.411Z,16.70
2022-10-22T15:25:28.836Z,16.70
2022-10-22T15:28:00.824Z,16.80
2022-10-22T15:30:34.802Z,16.60
2022-10-22T15:33:01.885Z,16.60
2022-10-22T15:35:29.099Z,16.60
2022-10-22T15:37:56.150Z,16.50
2022-10-22T15:40:23.236Z,16.50
2022-10-22T15:42:50.400Z,16.50
2022-10-22T15:45:17.605Z,16.50
2022-10-22T15:47:47.446Z,16.20
2022-10-22T15:50:15.261Z,16.40
2022-10-22T15:52:42.376Z,16.40
2022-10-22T15:55:10.803Z,16.40
2022-10-22T15:57:38.213Z,16.40
2022-10-22T16:00:06.522Z,16.30
2022-10-22T16:02:34.067Z,16.30
2022-10-22T16:05:01.171Z,16.30
2022-10-22T16:07:29.420Z,16.30
2022-10-22T16:09:57.373Z,16.30
2022-10-22T16:12:24.714Z,16.20
2022-10-22T16:14:51.857Z,16.20
2022-10-22T16:17:19.515Z,16.10
2022-10-22T16:19:47.519Z,16.10
2022-10-22T16:22:15.741Z,16.10
2022-10-22T16:24:44.092Z,16.10
2022-10-22T16:28:04.965Z,16.00
2022-10-22T16:30:35.809Z,17.40
2022-10-22T16:33:03.716Z,16.00
2022-10-22T16:35:31.345Z,15.90
2022-10-22T16:37:58.680Z,16.10
2022-10-22T16:40:25.952Z,15.90
2022-10-22T16:42:53.061Z,15.90
2022-10-22T16:48:56.645Z,15.90
2022-10-22T16:51:24.806Z,15.70
2022-10-22T16:53:52.689Z,15.40
2022-10-22T16:56:20.393Z,15.80
2022-10-22T16:58:48.725Z,16.60
2022-10-22T17:01:18.144Z,15.80
2022-10-22T17:03:45.766Z,15.70
2022-10-22T17:06:12.881Z,15.70
2022-10-22T17:08:40.625Z,15.60
2022-10-22T17:11:08.649Z,15.60
2022-10-22T17:13:35.842Z,16.40
2022-10-22T17:16:07.464Z,15.60
2022-10-22T17:18:35.374Z,15.60
2022-10-22T17:21:03.671Z,15.60
2022-10-22T17:23:30.808Z,15.60
2022-10-22T17:26:01.301Z,15.50
2022-10-22T17:28:28.814Z,15.60
2022-10-22T17:31:22.005Z,15.50
2022-10-22T17:33:49.874Z,15.50
2022-10-22T17:36:18.145Z,17.00
2022-10-22T17:38:47.658Z,15.40
2022-10-22T17:41:19.894Z,15.40
2022-10-22T17:43:47.753Z,15.30
2022-10-22T17:46:22.531Z,15.30
2022-10-22T17:48:57.455Z,15.40
2022-10-22T17:51:25.542Z,15.30
2022-10-22T17:53:52.791Z,15.30
2022-10-22T17:56:21.327Z,15.30
2022-10-22T17:58:48.617Z,15.30
2022-10-22T18:01:18.767Z,15.30
2022-10-22T18:03:45.928Z,15.30
2022-10-22T18:06:13.403Z,15.30
2022-10-22T18:08:40.808Z,15.20
2022-10-22T18:11:11.879Z,15.40
2022-10-22T18:13:38.979Z,15.20
2022-10-22T18:16:06.274Z,15.20
2022-10-22T18:18:33.837Z,15.20
2022-10-22T18:21:01.784Z,15.20
2022-10-22T18:23:28.832Z,15.10
2022-10-22T18:25:55.912Z,15.20
2022-10-22T18:28:22.971Z,15.20
2022-10-22T18:30:50.099Z,15.90
2022-10-22T18:33:18.772Z,15.10
2022-10-22T18:35:46.320Z,15.50
2022-10-22T18:38:14.931Z,15.10
2022-10-22T18:40:46.927Z,15.10
2022-10-22T18:43:14.383Z,15.00
2022-10-22T18:45:42.546Z,14.70
2022-10-22T18:48:10.086Z,15.10
2022-10-22T18:50:37.245Z,15.10
2022-10-22T18:53:04.371Z,15.00
2022-10-22T18:55:31.511Z,15.10
2022-10-22T18:57:58.574Z,15.00
2022-10-22T19:00:26.845Z,15.10
2022-10-22T19:02:54.934Z,15.10
2022-10-22T19:05:22.032Z,15.10
2022-10-22T19:07:49.706Z,15.10
2022-10-22T19:10:17.921Z,15.10
2022-10-22T19:12:45.279Z,16.70
2022-10-22T19:15:12.406Z,15.20
2022-10-22T19:17:39.793Z,15.20
2022-10-22T19:20:07.223Z,15.20
2022-10-22T19:22:34.363Z,15.10
2022-10-22T19:25:01.437Z,15.10
2022-10-22T19:27:28.655Z,14.90
2022-10-22T19:29:55.768Z,15.20
2022-10-22T19:32:24.426Z,15.10
2022-10-22T19:34:53.504Z,15.20
2022-10-22T19:37:20.766Z,15.10
2022-10-22T19:39:49.295Z,15.10
2022-10-22T19:42:16.382Z,15.10
2022-10-22T19:44:43.503Z,15.00
2022-10-22T19:47:11.382Z,15.00
2022-10-22T19:49:38.514Z,15.00
2022-10-22T19:52:05.852Z,15.00
2022-10-22T19:54:32.931Z,15.00
2022-10-22T19:57:00.057Z,14.90
2022-10-22T19:59:29.970Z,14.90
2022-10-22T20:01:59.178Z,14.90
2022-10-22T20:04:28.093Z,14.60
2022-10-22T20:06:55.814Z,14.80
2022-10-22T20:09:23.782Z,14.80
2022-10-22T20:11:51.031Z,15.00
2022-10-22T20:14:18.160Z,14.80
2022-10-22T20:16:45.390Z,14.80
2022-10-22T20:19:16.190Z,14.90
2022-10-22T20:21:43.727Z,14.80
2022-10-22T20:24:11.336Z,14.80
2022-10-22T20:26:38.581Z,14.80
2022-10-22T20:29:06.004Z,14.80
2022-10-22T20:31:33.285Z,14.80
2022-10-22T20:34:01.292Z,14.70
2022-10-22T20:36:29.978Z,15.10
2022-10-22T20:39:07.696Z,14.70
2022-10-22T20:41:35.793Z,14.70
2022-10-22T20:44:02.963Z,14.70
2022-10-22T20:46:31.849Z,14.80
2022-10-22T20:49:01.187Z,14.80
2022-10-22T20:51:28.430Z,14.80
2022-10-22T20:53:56.151Z,14.80
2022-10-22T20:56:23.690Z,14.80
2022-10-22T20:58:53.865Z,14.70
2022-10-22T21:01:24.390Z,14.80
2022-10-22T21:03:52.308Z,14.80
2022-10-22T21:06:23.329Z,14.80
2022-10-22T21:08:51.522Z,14.70
2022-10-22T21:11:18.879Z,14.70
2022-10-22T21:13:46.408Z,14.70
2022-10-22T21:16:14.611Z,14.70
2022-10-22T21:18:41.722Z,14.70
2022-10-22T21:21:09.613Z,14.70
2022-10-22T21:23:36.889Z,14.70
2022-10-22T21:26:04.430Z,14.70
2022-10-22T21:28:36.045Z,14.70
2022-10-22T21:31:04.576Z,14.70
2022-10-22T21:33:32.076Z,14.70
2022-10-22T21:35:59.125Z,14.70
2022-10-22T21:38:26.281Z,14.70
2022-10-22T21:40:53.560Z,14.60
2022-10-22T21:43:20.740Z,14.70
2022-10-22T21:45:47.838Z,15.90
2022-10-22T21:48:15.089Z,14.70
2022-10-22T21:50:43.173Z,14.40
2022-10-22T21:53:12.031Z,14.70
2022-10-22T21:55:39.943Z,14.70
2022-10-22T21:58:07.782Z,14.70
2022-10-22T22:00:35.648Z,14.70
2022-10-22T22:03:03.505Z,14.70
2022-10-22T22:05:30.810Z,15.00
2022-10-22T22:07:57.885Z,14.70
2022-10-22T22:10:27.690Z,14.70
2022-10-22T22:12:54.766Z,14.60
2022-10-22T22:15:21.956Z,14.70
2022-10-22T22:17:49.151Z,14.70
2022-10-22T22:20:16.354Z,14.70
2022-10-22T22:22:43.731Z,14.70
2022-10-22T22:25:13.733Z,14.70
2022-10-22T22:27:41.098Z,14.70
2022-10-22T22:30:08.923Z,14.60
2022-10-22T22:32:36.155Z,14.70
2022-10-22T22:35:03.620Z,14.70
2022-10-22T22:37:30.781Z,14.70
2022-10-22T22:39:57.869Z,14.70
2022-10-22T22:42:24.985Z,14.60
2022-10-22T22:44:52.046Z,14.60
2022-10-22T22:47:19.120Z,14.60
2022-10-22T22:49:46.157Z,14.60
2022-10-22T22:52:13.284Z,14.60
2022-10-22T22:54:40.386Z,14.50
2022-10-22T22:57:07.485Z,14.60
2022-10-22T22:59:34.575Z,14.80
2022-10-22T23:02:01.636Z,14.60
2022-10-22T23:04:30.214Z,14.60
2022-10-22T23:06:57.314Z,14.60
2022-10-22T23:09:24.368Z,14.60
2022-10-22T23:11:51.602Z,14.60
2022-10-22T23:14:19.407Z,14.70
2022-10-22T23:16:48.294Z,13.10
2022-10-22T23:19:17.143Z,14.60
2022-10-22T23:21:45.297Z,14.60
2022-10-22T23:24:14.775Z,14.50
2022-10-22T23:26:43.753Z,14.60
2022-10-22T23:29:12.376Z,14.60
2022-10-22T23:31:41.629Z,14.60
2022-10-22T23:34:09.750Z,14.60
2022-10-22T23:36:37.673Z,14.50
2022-10-22T23:39:05.930Z,14.60
2022-10-22T23:41:34.138Z,14.50
2022-10-22T23:44:01.591Z,14.50
2022-10-22T23:46:28.873Z,14.60
2022-10-22T23:48:55.994Z,14.40
2022-10-22T23:51:23.238Z,13.40
2022-10-22T23:53:54.629Z,14.60
2022-10-22T23:56:22.200Z,14.60
2022-10-22T23:58:51.622Z,14.60
